createdAt,value
2023-08-29T00:00:48.806Z,77.87
2023-08-29T00:03:16.448Z,77.84
2023-08-29T00:05:49.871Z,77.82
2023-08-29T00:08:17.813Z,77.89
2023-08-29T00:10:45.377Z,77.89
2023-08-29T00:13:13.159Z,77.90
2023-08-29T00:15:40.624Z,77.88
2023-08-29T00:18:08.270Z,77.82
2023-08-29T00:20:35.866Z,77.85
2023-08-29T00:23:03.442Z,77.94
2023-08-29T00:25:30.879Z,77.94
2023-08-29T00:27:58.059Z,78.00
2023-08-29T00:30:26.323Z,77.95
2023-08-29T00:32:54.225Z,77.93
2023-08-29T00:35:22.022Z,77.98
2023-08-29T00:37:49.406Z,77.95
2023-08-29T00:40:17.828Z,77.86
2023-08-29T00:42:45.584Z,77.96
2023-08-29T00:45:13.120Z,77.99
2023-08-29T00:47:42.102Z,78.02
2023-08-29T00:50:09.977Z,77.95
2023-08-29T00:52:37.443Z,77.99
2023-08-29T00:55:06.043Z,77.97
2023-08-29T00:57:34.524Z,78.06
2023-08-29T01:00:02.812Z,78.06
2023-08-29T01:02:30.516Z,78.09
2023-08-29T01:04:59.278Z,78.06
2023-08-29T01:07:26.874Z,78.11
2023-08-29T01:09:54.636Z,78.11
2023-08-29T01:12:23.681Z,78.18
2023-08-29T01:15:06.970Z,78.03
2023-08-29T01:17:46.182Z,78.08
2023-08-29T01:20:15.468Z,78.01
2023-08-29T01:23:14.997Z,78.09
2023-08-29T01:26:18.363Z,78.09
2023-08-29T01:28:49.141Z,78.02
2023-08-29T01:31:20.377Z,78.01
2023-08-29T01:33:48.951Z,78.00
2023-08-29T01:36:16.448Z,78.03
2023-08-29T01:38:44.002Z,77.95
2023-08-29T01:41:12.567Z,78.01
2023-08-29T01:43:40.239Z,77.97
2023-08-29T01:46:08.423Z,77.86
2023-08-29T01:48:36.572Z,77.83
2023-08-29T01:51:04.796Z,77.86
2023-08-29T01:53:32.306Z,77.88
2023-08-29T01:56:01.514Z,77.80
2023-08-29T01:58:29.868Z,77.78
2023-08-29T02:01:04.093Z,77.77
2023-08-29T02:03:37.683Z,77.66
2023-08-29T02:06:05.139Z,77.61
2023-08-29T02:08:32.710Z,77.64
2023-08-29T02:11:00.100Z,77.62
2023-08-29T02:13:27.709Z,77.63
2023-08-29T02:15:55.310Z,77.68
2023-08-29T02:18:23.033Z,77.65
2023-08-29T02:20:52.923Z,77.62
2023-08-29T02:23:21.526Z,77.69
2023-08-29T02:25:48.979Z,77.74
2023-08-29T02:28:17.055Z,77.76
2023-08-29T02:30:45.601Z,77.85
2023-08-29T02:33:13.010Z,77.81
2023-08-29T02:35:40.591Z,77.85
2023-08-29T02:38:08.234Z,77.97
2023-08-29T02:40:36.204Z,78.05
2023-08-29T02:43:04.363Z,78.01
2023-08-29T02:45:31.609Z,78.09
2023-08-29T02:47:59.119Z,78.22
2023-08-29T02:50:26.513Z,78.24
2023-08-29T02:52:53.971Z,78.11
2023-08-29T02:55:21.634Z,78.24
2023-08-29T02:57:49.057Z,78.38
2023-08-29T03:00:17.577Z,78.40
2023-08-29T03:02:45.305Z,78.40
2023-08-29T03:05:13.331Z,78.40
2023-08-29T03:07:40.735Z,78.40
2023-08-29T03:10:08.514Z,78.40
2023-08-29T03:12:38.143Z,78.48
2023-08-29T03:15:06.545Z,78.46
2023-08-29T03:17:33.974Z,78.53
2023-08-29T03:20:01.984Z,78.58
2023-08-29T03:22:29.333Z,78.49
2023-08-29T03:24:57.024Z,78.55
2023-08-29T03:27:24.651Z,78.63
2023-08-29T03:29:53.092Z,78.66
2023-08-29T03:32:20.638Z,78.59
2023-08-29T03:34:56.502Z,78.59
2023-08-29T03:37:23.995Z,78.65
2023-08-29T03:39:51.562Z,78.65
2023-08-29T03:42:19.295Z,78.57
2023-08-29T03:44:47.147Z,78.62
2023-08-29T03:47:14.928Z,78.63
2023-08-29T03:49:42.556Z,78.59
2023-08-29T03:52:09.923Z,78.65
2023-08-29T03:54:37.653Z,78.61
2023-08-29T03:57:05.397Z,78.50
2023-08-29T03:59:32.823Z,78.25
2023-08-29T04:02:00.543Z,78.43
2023-08-29T04:04:29.987Z,78.49
2023-08-29T04:06:58.372Z,78.27
2023-08-29T04:09:25.626Z,78.03
2023-08-29T04:11:52.908Z,78.05
2023-08-29T04:14:23.236Z,78.19
2023-08-29T04:16:50.896Z,78.10
2023-08-29T04:19:18.512Z,78.18
2023-08-29T04:21:45.971Z,77.85
2023-08-29T04:24:13.248Z,77.95
2023-08-29T04:26:41.350Z,78.20
2023-08-29T04:29:10.417Z,78.20
2023-08-29T04:31:38.303Z,77.84
2023-08-29T04:34:05.996Z,77.89
2023-08-29T04:36:33.729Z,77.87
2023-08-29T04:39:01.073Z,77.88
2023-08-29T04:41:28.735Z,78.03
2023-08-29T04:43:56.141Z,77.88
2023-08-29T04:46:24.606Z,77.51
2023-08-29T04:48:52.143Z,77.54
2023-08-29T04:51:19.760Z,77.60
2023-08-29T04:53:48.325Z,77.76
2023-08-29T04:56:16.563Z,77.63
2023-08-29T04:58:44.166Z,77.56
2023-08-29T05:01:11.727Z,77.37
2023-08-29T05:03:39.583Z,77.41
2023-08-29T05:06:07.217Z,77.57
2023-08-29T05:08:37.730Z,77.50
2023-08-29T05:11:06.952Z,77.39
2023-08-29T05:13:34.549Z,77.22
2023-08-29T05:16:02.706Z,77.26
2023-08-29T05:18:30.530Z,77.27
2023-08-29T05:21:00.977Z,77.15
2023-08-29T05:23:29.280Z,76.95
2023-08-29T05:25:59.855Z,76.98
2023-08-29T05:28:27.259Z,77.01
2023-08-29T05:30:54.913Z,77.08
2023-08-29T05:33:22.728Z,76.97
2023-08-29T05:35:50.069Z,77.16
2023-08-29T05:38:20.166Z,77.19
2023-08-29T05:40:53.721Z,77.05
2023-08-29T05:43:21.523Z,77.08
2023-08-29T05:45:48.943Z,77.06
2023-08-29T05:48:16.664Z,77.03
2023-08-29T05:50:44.544Z,77.08
2023-08-29T05:53:12.151Z,77.12
2023-08-29T05:55:39.805Z,76.88
2023-08-29T05:58:07.560Z,76.89
2023-08-29T06:00:37.291Z,76.80
2023-08-29T06:03:06.064Z,76.73
2023-08-29T06:05:33.373Z,76.82
2023-08-29T06:08:16.974Z,76.86
2023-08-29T06:10:46.332Z,76.79
2023-08-29T06:13:13.802Z,76.82
2023-08-29T06:15:41.666Z,76.93
2023-08-29T06:18:10.469Z,76.93
2023-08-29T06:20:38.197Z,76.95
2023-08-29T06:23:07.530Z,76.98
2023-08-29T06:25:37.153Z,76.95
2023-08-29T06:28:05.202Z,76.98
2023-08-29T06:30:33.478Z,77.02
2023-08-29T06:33:01.156Z,77.05
2023-08-29T06:35:28.554Z,77.05
2023-08-29T06:37:56.995Z,76.98
2023-08-29T06:40:24.674Z,76.93
2023-08-29T06:42:52.374Z,76.90
2023-08-29T06:45:19.888Z,76.92
2023-08-29T06:47:47.320Z,76.89
2023-08-29T06:50:14.802Z,76.83
2023-08-29T06:52:42.399Z,76.94
2023-08-29T06:55:11.242Z,76.89
2023-08-29T06:57:38.921Z,77.03
2023-08-29T07:00:09.162Z,76.95
2023-08-29T07:02:37.157Z,76.99
2023-08-29T07:05:04.842Z,77.01
2023-08-29T07:07:32.627Z,76.97
2023-08-29T07:10:00.451Z,76.06
2023-08-29T07:12:27.858Z,76.26
2023-08-29T07:14:55.301Z,76.63
2023-08-29T07:17:22.707Z,76.88
2023-08-29T07:19:50.198Z,76.85
2023-08-29T07:22:24.146Z,76.76
2023-08-29T07:24:55.141Z,76.85
2023-08-29T07:27:23.552Z,76.77
2023-08-29T07:29:51.362Z,76.88
2023-08-29T07:32:20.159Z,76.93
2023-08-29T07:34:47.923Z,76.92
2023-08-29T07:37:15.258Z,76.98
2023-08-29T07:39:43.872Z,76.92
2023-08-29T07:42:11.602Z,76.79
2023-08-29T07:44:39.622Z,76.70
2023-08-29T07:47:15.407Z,76.92
2023-08-29T07:49:44.573Z,76.89
2023-08-29T07:52:12.541Z,76.78
2023-08-29T07:54:40.928Z,76.77
2023-08-29T07:57:08.425Z,76.68
2023-08-29T07:59:36.280Z,76.44
2023-08-29T08:02:04.069Z,76.41
2023-08-29T08:04:32.256Z,76.55
2023-08-29T08:07:00.037Z,76.40
2023-08-29T08:09:28.077Z,75.93
2023-08-29T08:11:55.639Z,76.28
2023-08-29T08:14:23.337Z,76.26
2023-08-29T08:16:51.529Z,75.90
2023-08-29T08:19:19.590Z,76.12
2023-08-29T08:21:48.160Z,76.19
2023-08-29T08:24:18.316Z,76.08
2023-08-29T08:26:47.995Z,76.27
2023-08-29T08:29:15.782Z,75.92
2023-08-29T08:31:44.085Z,75.57
2023-08-29T08:34:13.255Z,75.59
2023-08-29T08:36:41.376Z,75.21
2023-08-29T08:39:09.163Z,75.47
2023-08-29T08:41:37.871Z,75.57
2023-08-29T08:44:10.628Z,75.55
2023-08-29T08:46:39.788Z,75.57
2023-08-29T08:49:07.811Z,75.40
2023-08-29T08:51:38.659Z,75.26
2023-08-29T08:54:08.826Z,75.33
2023-08-29T08:56:39.975Z,75.54
2023-08-29T08:59:07.859Z,75.54
2023-08-29T09:01:35.275Z,75.31
2023-08-29T09:04:02.994Z,75.41
2023-08-29T09:06:31.064Z,75.29
2023-08-29T09:09:17.733Z,75.37
2023-08-29T09:11:45.417Z,75.18
2023-08-29T09:14:14.063Z,75.21
2023-08-29T09:16:41.703Z,75.49
2023-08-29T09:19:09.333Z,75.60
2023-08-29T09:21:37.912Z,75.48
2023-08-29T09:24:06.079Z,75.54
2023-08-29T09:26:36.195Z,75.61
2023-08-29T09:29:19.103Z,75.51
2023-08-29T09:31:52.765Z,75.34
2023-08-29T09:34:27.137Z,75.41
2023-08-29T09:36:55.502Z,75.05
2023-08-29T09:39:23.413Z,75.16
2023-08-29T09:42:08.249Z,74.88
2023-08-29T09:44:40.572Z,74.99
2023-08-29T09:47:10.438Z,75.20
2023-08-29T09:49:48.817Z,75.30
2023-08-29T09:52:25.224Z,75.33
2023-08-29T09:54:56.232Z,75.23
2023-08-29T09:57:25.964Z,75.29
2023-08-29T09:59:54.473Z,74.90
2023-08-29T10:02:23.985Z,75.05
2023-08-29T10:05:01.472Z,75.18
2023-08-29T10:07:42.302Z,75.30
2023-08-29T10:10:12.126Z,75.54
2023-08-29T10:12:44.921Z,75.50
2023-08-29T10:15:13.486Z,75.61
2023-08-29T10:17:43.289Z,75.44
2023-08-29T10:20:14.232Z,75.34
2023-08-29T10:22:46.828Z,75.32
2023-08-29T10:25:17.386Z,75.39
2023-08-29T10:27:45.403Z,75.46
2023-08-29T10:30:13.333Z,75.43
2023-08-29T10:32:42.971Z,75.54
2023-08-29T10:35:21.937Z,75.59
2023-08-29T10:37:53.398Z,75.54
2023-08-29T10:40:22.321Z,75.36
2023-08-29T10:42:56.047Z,75.20
2023-08-29T10:45:43.428Z,75.33
2023-08-29T10:48:18.379Z,75.42
2023-08-29T10:50:50.354Z,75.38
2023-08-29T10:53:21.359Z,75.29
2023-08-29T10:56:05.288Z,75.23
2023-08-29T10:58:37.416Z,74.35
2023-08-29T11:01:06.301Z,74.53
2023-08-29T11:03:50.135Z,74.76
2023-08-29T11:06:19.554Z,74.64
2023-08-29T11:08:47.016Z,74.65
2023-08-29T11:11:20.475Z,74.89
2023-08-29T11:14:07.686Z,74.73
2023-08-29T11:16:39.340Z,74.46
2023-08-29T11:19:13.449Z,74.21
2023-08-29T11:21:48.535Z,74.69
2023-08-29T11:24:17.576Z,74.81
2023-08-29T11:26:47.488Z,74.77
2023-08-29T11:29:15.020Z,75.05
2023-08-29T11:31:44.880Z,74.56
2023-08-29T11:34:24.160Z,75.09
2023-08-29T11:36:54.796Z,75.28
2023-08-29T11:39:25.300Z,75.56
2023-08-29T11:42:27.127Z,75.94
2023-08-29T11:45:02.861Z,75.75
2023-08-29T11:47:30.098Z,75.72
2023-08-29T11:49:58.025Z,75.76
2023-08-29T11:52:25.414Z,75.96
2023-08-29T11:54:57.634Z,75.99
2023-08-29T11:57:31.571Z,75.82
2023-08-29T11:59:59.735Z,75.96
2023-08-29T12:02:27.892Z,75.57
2023-08-29T12:04:57.516Z,75.54
2023-08-29T12:07:33.758Z,75.23
2023-08-29T12:10:15.396Z,74.06
2023-08-29T12:12:46.013Z,72.61
2023-08-29T12:15:19.481Z,71.96
2023-08-29T12:17:54.062Z,71.60
2023-08-29T12:20:22.093Z,70.33
2023-08-29T12:22:51.916Z,70.42
2023-08-29T12:25:22.576Z,70.97
2023-08-29T12:27:50.557Z,70.59
2023-08-29T12:30:18.610Z,70.35
2023-08-29T12:32:47.699Z,69.30
2023-08-29T12:35:20.434Z,70.45
2023-08-29T12:37:48.218Z,71.10
2023-08-29T12:40:16.520Z,71.47
2023-08-29T12:42:45.177Z,71.78
2023-08-29T12:45:12.707Z,71.85
2023-08-29T12:47:40.632Z,71.94
2023-08-29T12:50:09.638Z,72.25
2023-08-29T12:52:39.583Z,71.87
2023-08-29T12:55:09.664Z,71.47
2023-08-29T12:57:37.093Z,71.03
2023-08-29T13:00:08.404Z,71.40
2023-08-29T13:02:35.990Z,71.88
2023-08-29T13:05:04.047Z,71.33
2023-08-29T13:07:32.143Z,70.79
2023-08-29T13:10:00.975Z,70.95
2023-08-29T13:12:29.442Z,70.76
2023-08-29T13:14:56.850Z,70.79
2023-08-29T13:17:24.885Z,70.47
2023-08-29T13:19:53.026Z,71.00
2023-08-29T13:22:23.413Z,70.25
2023-08-29T13:24:52.260Z,70.19
2023-08-29T13:27:19.518Z,69.86
2023-08-29T13:29:49.480Z,70.42
2023-08-29T13:32:16.930Z,70.69
2023-08-29T13:34:44.501Z,71.88
2023-08-29T13:37:12.186Z,71.96
2023-08-29T13:39:43.733Z,72.09
2023-08-29T13:42:11.431Z,71.90
2023-08-29T13:44:38.986Z,72.00
2023-08-29T13:47:06.626Z,72.41
2023-08-29T13:49:34.416Z,71.80
2023-08-29T13:52:03.009Z,71.49
2023-08-29T13:54:32.077Z,71.84
2023-08-29T13:57:01.318Z,72.23
2023-08-29T13:59:28.881Z,71.89
2023-08-29T14:01:58.401Z,72.38
2023-08-29T14:04:27.175Z,71.91
2023-08-29T14:06:56.918Z,72.38
2023-08-29T14:09:24.665Z,72.23
2023-08-29T14:11:52.068Z,71.51
2023-08-29T14:14:19.563Z,71.55
2023-08-29T14:16:47.988Z,71.84
2023-08-29T14:19:15.830Z,70.86
2023-08-29T14:21:43.236Z,71.14
2023-08-29T14:24:10.927Z,72.14
2023-08-29T14:26:38.734Z,72.19
2023-08-29T14:29:08.500Z,72.17
2023-08-29T14:31:36.436Z,72.55
2023-08-29T14:34:04.113Z,72.73
2023-08-29T14:36:34.687Z,73.25
2023-08-29T14:39:02.467Z,72.85
2023-08-29T14:41:29.834Z,72.83
2023-08-29T14:43:57.566Z,72.84
2023-08-29T14:46:25.350Z,72.96
2023-08-29T14:48:52.879Z,73.05
2023-08-29T14:51:20.927Z,73.03
2023-08-29T14:53:52.874Z,73.10
2023-08-29T14:56:21.432Z,73.56
2023-08-29T14:58:48.932Z,73.64
2023-08-29T15:01:16.714Z,74.09
2023-08-29T15:03:44.275Z,74.30
2023-08-29T15:06:12.907Z,74.47
2023-08-29T15:08:40.327Z,74.81
2023-08-29T15:11:07.735Z,75.12
2023-08-29T15:13:35.596Z,75.14
2023-08-29T15:16:06.481Z,75.14
2023-08-29T15:18:34.410Z,75.21
2023-08-29T15:21:02.265Z,75.87
2023-08-29T15:23:33.371Z,76.12
2023-08-29T15:26:05.306Z,76.49
2023-08-29T15:28:33.040Z,76.70
2023-08-29T15:31:02.759Z,77.11
2023-08-29T15:33:31.582Z,77.07
2023-08-29T15:35:59.830Z,77.00
2023-08-29T15:38:27.484Z,76.87
2023-08-29T15:40:58.231Z,77.02
2023-08-29T15:43:26.438Z,76.94
2023-08-29T15:45:54.365Z,76.83
2023-08-29T15:48:22.317Z,76.94
2023-08-29T15:50:52.981Z,77.09
2023-08-29T15:53:20.729Z,77.14
2023-08-29T15:55:48.176Z,77.53
2023-08-29T15:58:15.948Z,77.38
2023-08-29T16:00:43.208Z,77.65
2023-08-29T16:03:11.483Z,77.72
2023-08-29T16:05:42.105Z,77.89
2023-08-29T16:08:10.767Z,77.94
2023-08-29T16:10:41.819Z,78.29
2023-08-29T16:13:10.748Z,78.17
2023-08-29T16:15:38.808Z,78.31
2023-08-29T16:18:07.048Z,78.36
2023-08-29T16:20:35.318Z,78.38
2023-08-29T16:23:03.261Z,78.43
2023-08-29T16:25:30.774Z,78.59
2023-08-29T16:27:58.977Z,78.53
2023-08-29T16:30:27.656Z,78.88
2023-08-29T16:32:55.229Z,79.03
2023-08-29T16:35:22.824Z,79.17
2023-08-29T16:37:50.504Z,79.33
2023-08-29T16:40:18.170Z,79.49
2023-08-29T16:42:45.771Z,79.12
2023-08-29T16:45:13.602Z,79.22
2023-08-29T16:47:41.244Z,78.98
2023-08-29T16:50:09.225Z,78.95
2023-08-29T16:52:37.117Z,78.85
2023-08-29T16:55:05.565Z,79.03
2023-08-29T16:57:33.024Z,78.77
2023-08-29T17:00:03.521Z,78.88
2023-08-29T17:02:31.130Z,78.78
2023-08-29T17:05:00.138Z,78.05
2023-08-29T17:07:29.165Z,77.70
2023-08-29T17:09:57.119Z,77.56
2023-08-29T17:12:24.997Z,77.82
2023-08-29T17:14:53.211Z,77.38
2023-08-29T17:17:21.412Z,77.72
2023-08-29T17:19:49.100Z,77.53
2023-08-29T17:22:16.799Z,77.47
2023-08-29T17:24:44.429Z,76.79
2023-08-29T17:27:13.203Z,77.06
2023-08-29T17:29:40.609Z,77.24
2023-08-29T17:32:08.353Z,77.28
2023-08-29T17:34:36.269Z,77.27
2023-08-29T17:37:04.090Z,77.17
2023-08-29T17:39:32.629Z,76.90
2023-08-29T17:42:02.413Z,76.82
2023-08-29T17:44:29.940Z,76.86
2023-08-29T17:46:59.579Z,76.72
2023-08-29T17:49:27.186Z,76.54
2023-08-29T17:51:54.801Z,76.47
2023-08-29T17:54:22.772Z,76.75
2023-08-29T17:56:50.734Z,76.88
2023-08-29T17:59:18.035Z,76.70
2023-08-29T18:01:45.593Z,76.58
2023-08-29T18:04:14.018Z,76.55
2023-08-29T18:06:41.907Z,76.37
2023-08-29T18:09:09.542Z,76.46
2023-08-29T18:11:37.003Z,76.27
2023-08-29T18:14:05.559Z,75.63
2023-08-29T18:16:33.618Z,76.11
2023-08-29T18:19:03.321Z,76.01
2023-08-29T18:21:32.147Z,76.12
2023-08-29T18:23:59.901Z,75.84
2023-08-29T18:26:27.521Z,75.86
2023-08-29T18:28:54.690Z,75.66
2023-08-29T18:31:22.836Z,75.53
2023-08-29T18:33:52.536Z,75.52
2023-08-29T18:36:20.712Z,75.49
2023-08-29T18:38:48.404Z,75.57
2023-08-29T18:41:15.860Z,75.60
2023-08-29T18:43:43.217Z,75.50
2023-08-29T18:46:12.117Z,75.64
2023-08-29T18:48:39.287Z,75.59
2023-08-29T18:51:06.595Z,75.63
2023-08-29T18:53:33.948Z,75.77
2023-08-29T18:56:01.720Z,75.75
2023-08-29T18:58:30.220Z,75.96
2023-08-29T19:00:57.843Z,76.13
2023-08-29T19:03:25.871Z,76.22
2023-08-29T19:05:54.882Z,76.44
2023-08-29T19:08:22.935Z,77.30
2023-08-29T19:10:51.117Z,77.09
2023-08-29T19:13:18.399Z,76.77
2023-08-29T19:15:48.218Z,76.86
2023-08-29T19:18:16.176Z,76.89
2023-08-29T19:20:44.675Z,76.77
2023-08-29T19:23:13.071Z,76.53
2023-08-29T19:25:40.483Z,76.50
2023-08-29T19:28:09.982Z,76.21
2023-08-29T19:30:38.376Z,76.24
2023-08-29T19:33:06.154Z,76.19
2023-08-29T19:35:39.391Z,75.95
2023-08-29T19:38:07.282Z,76.08
2023-08-29T19:40:35.280Z,75.89
2023-08-29T19:43:05.408Z,75.54
2023-08-29T19:45:32.802Z,75.78
2023-08-29T19:48:26.011Z,74.89
2023-08-29T19:50:53.523Z,75.60
2023-08-29T19:53:21.483Z,75.48
2023-08-29T19:55:49.037Z,75.17
2023-08-29T19:58:17.384Z,75.26
2023-08-29T20:00:45.178Z,74.71
2023-08-29T20:03:12.530Z,74.96
2023-08-29T20:05:39.881Z,75.14
2023-08-29T20:08:07.649Z,75.21
2023-08-29T20:10:36.856Z,74.89
2023-08-29T20:13:04.756Z,74.92
2023-08-29T20:15:32.059Z,74.95
2023-08-29T20:17:59.706Z,74.76
2023-08-29T20:20:27.102Z,75.06
2023-08-29T20:22:54.627Z,75.02
2023-08-29T20:25:22.156Z,74.95
2023-08-29T20:27:49.619Z,74.96
2023-08-29T20:30:17.660Z,74.85
2023-08-29T20:32:46.464Z,74.89
2023-08-29T20:35:16.255Z,74.92
2023-08-29T20:37:44.814Z,74.80
2023-08-29T20:44:20.739Z,75.09
2023-08-29T20:46:48.953Z,74.99
2023-08-29T20:49:17.493Z,74.88
2023-08-29T20:51:50.330Z,74.88
2023-08-29T20:54:21.941Z,74.86
2023-08-29T20:56:52.303Z,74.89
2023-08-29T20:59:22.528Z,74.94
2023-08-29T21:01:51.343Z,74.89
2023-08-29T21:07:40.291Z,75.03
2023-08-29T21:10:09.671Z,75.02
2023-08-29T21:12:38.955Z,75.09
2023-08-29T21:15:10.755Z,74.92
2023-08-29T21:17:40.149Z,74.89
2023-08-29T21:20:09.604Z,74.93
2023-08-29T21:22:38.717Z,74.88
2023-08-29T21:25:09.051Z,75.05
2023-08-29T21:27:38.916Z,75.13
2023-08-29T21:30:07.559Z,75.15
2023-08-29T21:32:34.990Z,75.31
2023-08-29T21:35:02.539Z,75.39
2023-08-29T21:37:30.372Z,75.45
2023-08-29T21:39:58.933Z,75.60
2023-08-29T21:42:26.920Z,75.63
2023-08-29T21:44:55.373Z,75.64
2023-08-29T21:47:23.940Z,75.68
2023-08-29T21:49:52.360Z,75.53
2023-08-29T21:52:20.353Z,75.98
2023-08-29T21:54:48.461Z,75.91
2023-08-29T21:57:16.145Z,75.69
2023-08-29T21:59:44.782Z,75.74
2023-08-29T22:02:12.840Z,75.86
2023-08-29T22:04:40.400Z,75.84
2023-08-29T22:07:07.736Z,75.80
2023-08-29T22:09:35.129Z,75.78
2023-08-29T22:12:05.444Z,75.70
2023-08-29T22:14:33.848Z,75.80
2023-08-29T22:17:03.647Z,75.75
2023-08-29T22:19:32.346Z,75.72
2023-08-29T22:22:00.406Z,75.68
2023-08-29T22:24:28.452Z,75.81
2023-08-29T22:26:56.942Z,76.05
2023-08-29T22:29:25.470Z,76.16
2023-08-29T22:31:53.866Z,76.26
2023-08-29T22:34:21.684Z,76.18
2023-08-29T22:36:49.551Z,76.10
2023-08-29T22:39:17.483Z,76.08
2023-08-29T22:41:46.311Z,76.10
2023-08-29T22:44:14.344Z,76.08
2023-08-29T22:46:42.276Z,76.33
2023-08-29T22:49:10.701Z,76.44
2023-08-29T22:51:39.042Z,76.16
2023-08-29T22:54:07.843Z,76.30
2023-08-29T22:56:36.401Z,75.92
2023-08-29T22:59:04.466Z,76.12
2023-08-29T23:01:33.875Z,76.02
2023-08-29T23:04:02.229Z,75.88
2023-08-29T23:06:32.190Z,76.00
2023-08-29T23:09:03.571Z,75.41
2023-08-29T23:11:32.736Z,75.84
2023-08-29T23:14:02.710Z,75.63
2023-08-29T23:16:32.126Z,75.57
2023-08-29T23:19:00.089Z,75.53
2023-08-29T23:21:28.226Z,75.29
2023-08-29T23:23:56.783Z,75.41
2023-08-29T23:26:25.712Z,75.43
2023-08-29T23:28:54.119Z,75.28
2023-08-29T23:31:22.363Z,75.34
2023-08-29T23:33:51.727Z,75.22
2023-08-29T23:36:22.873Z,75.18
2023-08-29T23:38:52.468Z,75.14
2023-08-29T23:41:20.698Z,75.05
2023-08-29T23:43:48.864Z,74.64
2023-08-29T23:46:17.538Z,74.89
2023-08-29T23:48:45.661Z,74.80
2023-08-29T23:51:14.254Z,74.70
2023-08-29T23:53:42.385Z,74.57
2023-08-29T23:56:10.629Z,74.80
2023-08-29T23:58:38.808Z,74.96
